Impacts TAF Board
For situational awareness. Not to be used for flight planning purposes.
IDs:

KGUY - Guymon Muni, OK, US

Issued at 1127 UTC 30 Oct 2020
Updated at 1649 UTC 30 Oct 2020
Potential Impact None Slight Moderate High
Time1553Z 30/17Z 30/18Z 30/19Z 30/20Z 30/21Z 30/22Z 30/23Z 31/00Z 31/01Z 31/02Z 31/03Z 31/04Z 31/05Z>>
Type OBS PRVL PRVL PRVL PRVL PRVL PRVL PRVL PRVL PRVL PRVL PRVL PRVL PRVL
VIS 10 >6 >6 >6 >6 >6 >6 >6 >6 >6 >6 >6 >6 >6
CIG -- -- -- -- -- -- -- -- -- -- -- -- -- --
Cover CLR SCT SCT SCT SCT SCT SCT SCT SCT SCT SCT SCT SCT SCT
FltCat VFR VFR VFR VFR VFR VFR VFR VFR VFR VFR VFR VFR VFR VFR
WX -- -- -- -- -- -- -- -- -- -- -- -- -- --
WDir 190 200 200 200 200 200 200 200 200 200 200 200 200 200
WSpd 5 11 11 11 11 11 11 11 11 11 11 11 11 11
WGst -- -- -- -- -- -- -- -- -- -- -- -- -- --
Raw TAF
KGUY 301127Z 3012/3112 20011KT P6SM SCT250

Raw METAR
KGUY 301553Z AUTO 19005KT 10SM CLR 11/04 A3023 RMK AO2 SLP229 T01060044
KGUY 301453Z AUTO 20004KT 10SM CLR 05/03 A3024 RMK AO2 SLP238 T00500028 52007
KGUY 301353Z AUTO 22004KT 10SM CLR 01/00 A3023 RMK AO2 SLP238 T00110000

METAR Board
Radar Display
Forecast Discussion
For situational awareness. Not to be used for flight planning purposes.